sensor_id;sensor_type;location;lat;lon;timestamp;P1;durP1;ratioP1;P2;durP2;ratioP2
27265;SDS011;14766;51.380;13.762;2023-06-19T00:00:23;11.10;;;10.00;;
27265;SDS011;14766;51.380;13.762;2023-06-19T00:02:51;11.23;;;10.02;;
27265;SDS011;14766;51.380;13.762;2023-06-19T00:05:23;10.90;;;9.75;;
27265;SDS011;14766;51.380;13.762;2023-06-19T00:07:51;11.05;;;9.95;;
27265;SDS011;14766;51.380;13.762;2023-06-19T00:10:19;11.05;;;9.98;;
27265;SDS011;14766;51.380;13.762;2023-06-19T00:12:51;11.48;;;10.27;;
27265;SDS011;14766;51.380;13.762;2023-06-19T00:15:19;11.73;;;10.52;;
27265;SDS011;14766;51.380;13.762;2023-06-19T00:17:53;11.52;;;10.43;;
27265;SDS011;14766;51.380;13.762;2023-06-19T00:20:23;11.70;;;10.50;;
27265;SDS011;14766;51.380;13.762;2023-06-19T00:22:52;11.73;;;10.52;;
27265;SDS011;14766;51.380;13.762;2023-06-19T00:25:20;11.73;;;10.63;;
27265;SDS011;14766;51.380;13.762;2023-06-19T00:27:48;12.73;;;10.57;;
27265;SDS011;14766;51.380;13.762;2023-06-19T00:30:16;11.27;;;10.18;;
27265;SDS011;14766;51.380;13.762;2023-06-19T00:32:48;11.05;;;9.85;;
27265;SDS011;14766;51.380;13.762;2023-06-19T00:35:20;11.25;;;10.10;;
27265;SDS011;14766;51.380;13.762;2023-06-19T00:37:49;11.10;;;10.05;;
27265;SDS011;14766;51.380;13.762;2023-06-19T00:40:21;11.57;;;10.48;;
27265;SDS011;14766;51.380;13.762;2023-06-19T00:42:55;11.23;;;10.10;;
27265;SDS011;14766;51.380;13.762;2023-06-19T00:45:29;11.38;;;10.23;;
27265;SDS011;14766;51.380;13.762;2023-06-19T00:47:58;11.27;;;10.18;;
27265;SDS011;14766;51.380;13.762;2023-06-19T00:50:36;10.63;;;9.63;;
27265;SDS011;14766;51.380;13.762;2023-06-19T00:53:04;10.98;;;9.90;;
27265;SDS011;14766;51.380;13.762;2023-06-19T00:55:35;10.88;;;9.82;;
27265;SDS011;14766;51.380;13.762;2023-06-19T00:58:04;10.60;;;9.60;;
27265;SDS011;14766;51.380;13.762;2023-06-19T01:00:33;11.80;;;9.85;;
27265;SDS011;14766;51.380;13.762;2023-06-19T01:03:02;11.45;;;10.35;;
27265;SDS011;14766;51.380;13.762;2023-06-19T01:05:31;11.38;;;10.27;;
27265;SDS011;14766;51.380;13.762;2023-06-19T01:08:10;10.93;;;9.82;;
27265;SDS011;14766;51.380;13.762;2023-06-19T01:11:00;11.52;;;10.25;;
27265;SDS011;14766;51.380;13.762;2023-06-19T01:13:53;11.52;;;10.32;;
27265;SDS011;14766;51.380;13.762;2023-06-19T01:16:29;10.93;;;9.93;;
27265;SDS011;14766;51.380;13.762;2023-06-19T01:19:01;11.32;;;10.23;;
27265;SDS011;14766;51.380;13.762;2023-06-19T01:21:32;11.38;;;10.20;;
27265;SDS011;14766;51.380;13.762;2023-06-19T01:24:03;11.60;;;10.45;;
27265;SDS011;14766;51.380;13.762;2023-06-19T01:26:31;11.38;;;10.27;;
27265;SDS011;14766;51.380;13.762;2023-06-19T01:29:03;10.95;;;9.85;;
27265;SDS011;14766;51.380;13.762;2023-06-19T01:31:34;10.85;;;9.77;;
27265;SDS011;14766;51.380;13.762;2023-06-19T01:34:12;11.30;;;10.20;;
27265;SDS011;14766;51.380;13.762;2023-06-19T01:36:47;11.53;;;10.33;;
27265;SDS011;14766;51.380;13.762;2023-06-19T01:39:20;11.35;;;10.15;;
27265;SDS011;14766;51.380;13.762;2023-06-19T01:41:48;11.45;;;10.38;;
27265;SDS011;14766;51.380;13.762;2023-06-19T01:44:22;10.80;;;9.80;;
27265;SDS011;14766;51.380;13.762;2023-06-19T01:46:53;11.18;;;9.98;;
27265;SDS011;14766;51.380;13.762;2023-06-19T01:49:21;11.25;;;10.15;;
27265;SDS011;14766;51.380;13.762;2023-06-19T01:51:49;11.63;;;10.48;;
27265;SDS011;14766;51.380;13.762;2023-06-19T01:54:17;10.95;;;9.95;;
27265;SDS011;14766;51.380;13.762;2023-06-19T01:56:45;11.57;;;10.43;;
27265;SDS011;14766;51.380;13.762;2023-06-19T01:59:13;11.52;;;10.32;;
27265;SDS011;14766;51.380;13.762;2023-06-19T02:01:41;11.73;;;10.63;;
27265;SDS011;14766;51.380;13.762;2023-06-19T02:04:09;15.98;;;10.38;;
27265;SDS011;14766;51.380;13.762;2023-06-19T02:06:37;11.73;;;10.50;;
27265;SDS011;14766;51.380;13.762;2023-06-19T02:09:08;10.70;;;9.63;;
27265;SDS011;14766;51.380;13.762;2023-06-19T02:11:38;11.25;;;10.02;;
27265;SDS011;14766;51.380;13.762;2023-06-19T02:14:05;11.30;;;10.30;;
27265;SDS011;14766;51.380;13.762;2023-06-19T02:16:33;10.70;;;9.70;;
27265;SDS011;14766;51.380;13.762;2023-06-19T02:19:01;11.60;;;10.40;;
27265;SDS011;14766;51.380;13.762;2023-06-19T02:21:29;11.32;;;10.23;;
27265;SDS011;14766;51.380;13.762;2023-06-19T02:23:57;11.55;;;10.45;;
27265;SDS011;14766;51.380;13.762;2023-06-19T02:26:25;10.88;;;9.77;;
27265;SDS011;14766;51.380;13.762;2023-06-19T02:28:56;11.88;;;10.40;;
27265;SDS011;14766;51.380;13.762;2023-06-19T02:31:23;11.32;;;10.23;;
27265;SDS011;14766;51.380;13.762;2023-06-19T02:33:51;10.98;;;9.88;;
27265;SDS011;14766;51.380;13.762;2023-06-19T02:36:19;10.35;;;9.35;;
27265;SDS011;14766;51.380;13.762;2023-06-19T02:38:47;10.85;;;9.75;;
27265;SDS011;14766;51.380;13.762;2023-06-19T02:41:17;11.55;;;9.77;;
27265;SDS011;14766;51.380;13.762;2023-06-19T02:43:45;11.38;;;9.82;;
27265;SDS011;14766;51.380;13.762;2023-06-19T02:46:16;10.90;;;9.80;;
27265;SDS011;14766;51.380;13.762;2023-06-19T02:48:44;10.85;;;9.80;;
27265;SDS011;14766;51.380;13.762;2023-06-19T02:51:12;10.65;;;9.65;;
27265;SDS011;14766;51.380;13.762;2023-06-19T02:53:41;11.25;;;10.20;;
27265;SDS011;14766;51.380;13.762;2023-06-19T02:56:11;11.07;;;9.68;;
27265;SDS011;14766;51.380;13.762;2023-06-19T02:58:39;10.98;;;9.75;;
27265;SDS011;14766;51.380;13.762;2023-06-19T03:01:07;11.27;;;10.18;;
27265;SDS011;14766;51.380;13.762;2023-06-19T03:03:35;12.43;;;9.85;;
27265;SDS011;14766;51.380;13.762;2023-06-19T03:06:05;10.50;;;9.50;;
27265;SDS011;14766;51.380;13.762;2023-06-19T03:08:34;11.65;;;9.48;;
27265;SDS011;14766;51.380;13.762;2023-06-19T03:11:03;11.48;;;10.38;;
27265;SDS011;14766;51.380;13.762;2023-06-19T03:13:47;11.15;;;9.95;;
27265;SDS011;14766;51.380;13.762;2023-06-19T03:16:19;10.20;;;9.20;;
27265;SDS011;14766;51.380;13.762;2023-06-19T03:18:48;10.60;;;9.50;;
27265;SDS011;14766;51.380;13.762;2023-06-19T03:21:22;10.55;;;9.55;;
27265;SDS011;14766;51.380;13.762;2023-06-19T03:23:51;10.75;;;9.75;;
27265;SDS011;14766;51.380;13.762;2023-06-19T03:26:21;10.93;;;9.82;;
27265;SDS011;14766;51.380;13.762;2023-06-19T03:28:59;9.93;;;8.82;;
27265;SDS011;14766;51.380;13.762;2023-06-19T03:31:34;10.15;;;9.15;;
27265;SDS011;14766;51.380;13.762;2023-06-19T03:34:06;10.82;;;9.45;;
27265;SDS011;14766;51.380;13.762;2023-06-19T03:36:36;10.00;;;9.02;;
27265;SDS011;14766;51.380;13.762;2023-06-19T03:39:07;10.55;;;9.55;;
27265;SDS011;14766;51.380;13.762;2023-06-19T03:41:37;9.73;;;8.82;;
27265;SDS011;14766;51.380;13.762;2023-06-19T03:44:05;11.10;;;10.10;;
27265;SDS011;14766;51.380;13.762;2023-06-19T03:46:33;10.68;;;9.68;;
27265;SDS011;14766;51.380;13.762;2023-06-19T03:49:01;10.77;;;9.70;;
27265;SDS011;14766;51.380;13.762;2023-06-19T03:51:32;10.85;;;9.80;;
27265;SDS011;14766;51.380;13.762;2023-06-19T03:54:00;10.73;;;9.73;;
27265;SDS011;14766;51.380;13.762;2023-06-19T03:56:31;10.13;;;9.18;;
27265;SDS011;14766;51.380;13.762;2023-06-19T03:58:58;10.75;;;9.75;;
27265;SDS011;14766;51.380;13.762;2023-06-19T04:01:27;10.40;;;9.30;;
27265;SDS011;14766;51.380;13.762;2023-06-19T04:03:55;11.15;;;10.05;;
27265;SDS011;14766;51.380;13.762;2023-06-19T04:06:23;10.65;;;9.55;;
27265;SDS011;14766;51.380;13.762;2023-06-19T04:08:54;10.23;;;9.23;;
27265;SDS011;14766;51.380;13.762;2023-06-19T04:11:24;10.88;;;9.77;;
27265;SDS011;14766;51.380;13.762;2023-06-19T04:13:52;10.70;;;9.70;;
27265;SDS011;14766;51.380;13.762;2023-06-19T04:16:21;11.15;;;10.05;;
27265;SDS011;14766;51.380;13.762;2023-06-19T04:18:49;11.50;;;10.15;;
27265;SDS011;14766;51.380;13.762;2023-06-19T04:21:17;10.57;;;9.57;;
27265;SDS011;14766;51.380;13.762;2023-06-19T04:23:46;10.57;;;9.48;;
27265;SDS011;14766;51.380;13.762;2023-06-19T04:26:14;11.75;;;10.60;;
27265;SDS011;14766;51.380;13.762;2023-06-19T04:28:41;10.18;;;9.18;;
27265;SDS011;14766;51.380;13.762;2023-06-19T04:31:09;10.57;;;9.57;;
27265;SDS011;14766;51.380;13.762;2023-06-19T04:33:37;10.77;;;9.70;;
27265;SDS011;14766;51.380;13.762;2023-06-19T04:36:07;11.00;;;9.90;;
27265;SDS011;14766;51.380;13.762;2023-06-19T04:38:36;10.30;;;9.30;;
27265;SDS011;14766;51.380;13.762;2023-06-19T04:41:03;10.35;;;9.35;;
27265;SDS011;14766;51.380;13.762;2023-06-19T04:43:30;11.07;;;9.98;;
27265;SDS011;14766;51.380;13.762;2023-06-19T04:46:00;10.38;;;9.38;;
27265;SDS011;14766;51.380;13.762;2023-06-19T04:48:30;9.95;;;9.02;;
27265;SDS011;14766;51.380;13.762;2023-06-19T04:51:01;10.40;;;9.30;;
27265;SDS011;14766;51.380;13.762;2023-06-19T04:53:29;10.60;;;9.63;;
27265;SDS011;14766;51.380;13.762;2023-06-19T04:55:56;10.30;;;9.13;;
27265;SDS011;14766;51.380;13.762;2023-06-19T04:58:26;10.30;;;9.30;;
27265;SDS011;14766;51.380;13.762;2023-06-19T05:00:54;11.10;;;10.10;;
27265;SDS011;14766;51.380;13.762;2023-06-19T05:03:22;10.27;;;9.27;;
27265;SDS011;14766;51.380;13.762;2023-06-19T05:05:50;10.60;;;9.57;;
27265;SDS011;14766;51.380;13.762;2023-06-19T05:08:18;10.50;;;9.48;;
27265;SDS011;14766;51.380;13.762;2023-06-19T05:10:46;9.90;;;8.90;;
27265;SDS011;14766;51.380;13.762;2023-06-19T05:13:14;10.00;;;8.98;;
27265;SDS011;14766;51.380;13.762;2023-06-19T05:15:42;10.52;;;9.52;;
27265;SDS011;14766;51.380;13.762;2023-06-19T05:18:09;9.75;;;8.77;;
27265;SDS011;14766;51.380;13.762;2023-06-19T05:20:37;10.00;;;9.02;;
27265;SDS011;14766;51.380;13.762;2023-06-19T05:23:05;10.15;;;9.15;;
27265;SDS011;14766;51.380;13.762;2023-06-19T05:25:32;9.82;;;8.93;;
27265;SDS011;14766;51.380;13.762;2023-06-19T05:27:59;10.27;;;9.25;;
27265;SDS011;14766;51.380;13.762;2023-06-19T05:30:31;10.43;;;9.13;;
27265;SDS011;14766;51.380;13.762;2023-06-19T05:32:58;10.40;;;9.20;;
27265;SDS011;14766;51.380;13.762;2023-06-19T05:35:26;10.30;;;9.20;;
27265;SDS011;14766;51.380;13.762;2023-06-19T05:37:54;10.60;;;9.55;;
27265;SDS011;14766;51.380;13.762;2023-06-19T05:40:22;10.43;;;9.43;;
27265;SDS011;14766;51.380;13.762;2023-06-19T05:42:49;9.93;;;8.93;;
27265;SDS011;14766;51.380;13.762;2023-06-19T05:45:16;10.95;;;9.57;;
27265;SDS011;14766;51.380;13.762;2023-06-19T05:47:44;9.65;;;8.55;;
27265;SDS011;14766;51.380;13.762;2023-06-19T05:50:11;9.80;;;8.85;;
27265;SDS011;14766;51.380;13.762;2023-06-19T05:52:38;9.88;;;8.88;;
27265;SDS011;14766;51.380;13.762;2023-06-19T05:55:09;10.30;;;9.30;;
27265;SDS011;14766;51.380;13.762;2023-06-19T05:57:37;10.07;;;9.07;;
27265;SDS011;14766;51.380;13.762;2023-06-19T06:00:04;10.35;;;9.25;;
27265;SDS011;14766;51.380;13.762;2023-06-19T06:02:38;10.73;;;9.63;;
27265;SDS011;14766;51.380;13.762;2023-06-19T06:05:05;10.52;;;9.43;;
27265;SDS011;14766;51.380;13.762;2023-06-19T06:07:35;10.25;;;9.25;;
27265;SDS011;14766;51.380;13.762;2023-06-19T06:10:06;10.50;;;9.40;;
27265;SDS011;14766;51.380;13.762;2023-06-19T06:12:34;10.23;;;9.23;;
27265;SDS011;14766;51.380;13.762;2023-06-19T06:15:04;10.73;;;9.65;;
27265;SDS011;14766;51.380;13.762;2023-06-19T06:17:32;9.77;;;8.77;;
27265;SDS011;14766;51.380;13.762;2023-06-19T06:19:59;9.77;;;8.88;;
27265;SDS011;14766;51.380;13.762;2023-06-19T06:22:26;9.70;;;8.80;;
27265;SDS011;14766;51.380;13.762;2023-06-19T06:24:53;9.63;;;8.68;;
27265;SDS011;14766;51.380;13.762;2023-06-19T06:27:21;10.70;;;9.60;;
27265;SDS011;14766;51.380;13.762;2023-06-19T06:29:49;10.02;;;8.95;;
27265;SDS011;14766;51.380;13.762;2023-06-19T06:32:16;9.55;;;8.63;;
27265;SDS011;14766;51.380;13.762;2023-06-19T06:34:45;9.77;;;8.85;;
27265;SDS011;14766;51.380;13.762;2023-06-19T06:37:12;9.63;;;8.52;;
27265;SDS011;14766;51.380;13.762;2023-06-19T06:39:39;9.98;;;8.98;;
27265;SDS011;14766;51.380;13.762;2023-06-19T06:42:07;9.60;;;8.60;;
27265;SDS011;14766;51.380;13.762;2023-06-19T06:44:35;10.30;;;9.30;;
27265;SDS011;14766;51.380;13.762;2023-06-19T06:47:03;10.80;;;9.70;;
27265;SDS011;14766;51.380;13.762;2023-06-19T06:49:35;10.02;;;9.02;;
27265;SDS011;14766;51.380;13.762;2023-06-19T06:52:05;9.63;;;8.68;;
27265;SDS011;14766;51.380;13.762;2023-06-19T06:54:33;10.50;;;9.30;;
27265;SDS011;14766;51.380;13.762;2023-06-19T06:57:00;11.40;;;8.82;;
27265;SDS011;14766;51.380;13.762;2023-06-19T06:59:27;9.95;;;8.80;;
27265;SDS011;14766;51.380;13.762;2023-06-19T07:01:54;10.18;;;9.18;;
27265;SDS011;14766;51.380;13.762;2023-06-19T07:04:23;10.15;;;9.13;;
27265;SDS011;14766;51.380;13.762;2023-06-19T07:06:50;9.80;;;8.80;;
27265;SDS011;14766;51.380;13.762;2023-06-19T07:09:18;9.80;;;8.85;;
27265;SDS011;14766;51.380;13.762;2023-06-19T07:11:48;9.85;;;8.95;;
27265;SDS011;14766;51.380;13.762;2023-06-19T07:14:19;9.90;;;8.90;;
27265;SDS011;14766;51.380;13.762;2023-06-19T07:16:46;9.73;;;8.73;;
27265;SDS011;14766;51.380;13.762;2023-06-19T07:19:14;9.98;;;9.02;;
27265;SDS011;14766;51.380;13.762;2023-06-19T07:21:41;10.73;;;9.68;;
27265;SDS011;14766;51.380;13.762;2023-06-19T07:24:08;9.43;;;8.52;;
27265;SDS011;14766;51.380;13.762;2023-06-19T07:26:36;9.60;;;8.60;;
27265;SDS011;14766;51.380;13.762;2023-06-19T07:29:03;9.90;;;8.98;;
27265;SDS011;14766;51.380;13.762;2023-06-19T07:31:31;11.57;;;8.98;;
27265;SDS011;14766;51.380;13.762;2023-06-19T07:33:58;10.40;;;8.93;;
27265;SDS011;14766;51.380;13.762;2023-06-19T07:36:26;10.70;;;8.38;;
27265;SDS011;14766;51.380;13.762;2023-06-19T07:38:54;9.18;;;8.27;;
27265;SDS011;14766;51.380;13.762;2023-06-19T07:41:22;8.90;;;7.80;;
27265;SDS011;14766;51.380;13.762;2023-06-19T07:43:49;9.13;;;8.23;;
27265;SDS011;14766;51.380;13.762;2023-06-19T07:46:16;8.65;;;7.80;;
27265;SDS011;14766;51.380;13.762;2023-06-19T07:48:44;9.10;;;8.30;;
27265;SDS011;14766;51.380;13.762;2023-06-19T07:51:11;8.98;;;8.07;;
27265;SDS011;14766;51.380;13.762;2023-06-19T07:53:40;8.30;;;7.50;;
27265;SDS011;14766;51.380;13.762;2023-06-19T07:56:07;8.20;;;7.30;;
27265;SDS011;14766;51.380;13.762;2023-06-19T07:58:35;8.63;;;7.75;;
27265;SDS011;14766;51.380;13.762;2023-06-19T08:01:02;8.80;;;7.90;;
27265;SDS011;14766;51.380;13.762;2023-06-19T08:03:29;7.47;;;6.65;;
27265;SDS011;14766;51.380;13.762;2023-06-19T08:05:58;8.55;;;7.72;;
27265;SDS011;14766;51.380;13.762;2023-06-19T08:08:26;8.30;;;7.55;;
27265;SDS011;14766;51.380;13.762;2023-06-19T08:10:54;8.27;;;7.47;;
27265;SDS011;14766;51.380;13.762;2023-06-19T08:13:21;8.68;;;7.88;;
27265;SDS011;14766;51.380;13.762;2023-06-19T08:15:48;8.18;;;7.38;;
27265;SDS011;14766;51.380;13.762;2023-06-19T08:18:15;8.90;;;8.00;;
27265;SDS011;14766;51.380;13.762;2023-06-19T08:20:45;8.85;;;7.38;;
27265;SDS011;14766;51.380;13.762;2023-06-19T08:23:12;8.18;;;7.38;;
27265;SDS011;14766;51.380;13.762;2023-06-19T08:25:39;8.10;;;7.30;;
27265;SDS011;14766;51.380;13.762;2023-06-19T08:28:07;8.43;;;7.63;;
27265;SDS011;14766;51.380;13.762;2023-06-19T08:30:35;7.80;;;7.10;;
27265;SDS011;14766;51.380;13.762;2023-06-19T08:33:04;8.05;;;7.25;;
27265;SDS011;14766;51.380;13.762;2023-06-19T08:35:32;9.18;;;6.97;;
27265;SDS011;14766;51.380;13.762;2023-06-19T08:37:59;8.20;;;7.40;;
27265;SDS011;14766;51.380;13.762;2023-06-19T08:40:27;7.80;;;7.10;;
27265;SDS011;14766;51.380;13.762;2023-06-19T08:42:54;7.80;;;7.00;;
27265;SDS011;14766;51.380;13.762;2023-06-19T08:45:22;8.13;;;7.32;;
27265;SDS011;14766;51.380;13.762;2023-06-19T08:47:49;7.72;;;7.03;;
27265;SDS011;14766;51.380;13.762;2023-06-19T08:50:24;7.28;;;6.68;;
27265;SDS011;14766;51.380;13.762;2023-06-19T08:52:52;7.40;;;6.70;;
27265;SDS011;14766;51.380;13.762;2023-06-19T08:55:22;7.10;;;6.43;;
27265;SDS011;14766;51.380;13.762;2023-06-19T08:57:50;7.40;;;6.70;;
27265;SDS011;14766;51.380;13.762;2023-06-19T09:00:23;8.05;;;6.35;;
27265;SDS011;14766;51.380;13.762;2023-06-19T09:03:01;7.32;;;6.50;;
27265;SDS011;14766;51.380;13.762;2023-06-19T09:05:43;7.10;;;6.40;;
27265;SDS011;14766;51.380;13.762;2023-06-19T09:08:20;6.60;;;6.00;;
27265;SDS011;14766;51.380;13.762;2023-06-19T09:13:26;8.90;;;5.93;;
27265;SDS011;14766;51.380;13.762;2023-06-19T09:18:26;6.70;;;6.07;;
27265;SDS011;14766;51.380;13.762;2023-06-19T09:20:55;7.18;;;6.15;;
27265;SDS011;14766;51.380;13.762;2023-06-19T09:23:22;7.68;;;6.15;;
27265;SDS011;14766;51.380;13.762;2023-06-19T09:25:57;7.18;;;6.47;;
27265;SDS011;14766;51.380;13.762;2023-06-19T09:28:27;7.13;;;6.43;;
27265;SDS011;14766;51.380;13.762;2023-06-19T09:30:55;8.85;;;6.90;;
27265;SDS011;14766;51.380;13.762;2023-06-19T09:33:30;7.37;;;6.60;;
27265;SDS011;14766;51.380;13.762;2023-06-19T09:36:00;7.13;;;6.53;;
27265;SDS011;14766;51.380;13.762;2023-06-19T09:38:29;7.28;;;6.25;;
27265;SDS011;14766;51.380;13.762;2023-06-19T09:40:59;7.15;;;6.45;;
27265;SDS011;14766;51.380;13.762;2023-06-19T09:43:30;7.30;;;6.55;;
27265;SDS011;14766;51.380;13.762;2023-06-19T09:46:05;8.50;;;6.93;;
27265;SDS011;14766;51.380;13.762;2023-06-19T09:48:35;7.72;;;6.88;;
27265;SDS011;14766;51.380;13.762;2023-06-19T09:51:18;7.10;;;6.40;;
27265;SDS011;14766;51.380;13.762;2023-06-19T09:53:51;7.30;;;6.55;;
27265;SDS011;14766;51.380;13.762;2023-06-19T09:56:18;7.30;;;6.60;;
27265;SDS011;14766;51.380;13.762;2023-06-19T09:58:49;7.15;;;6.45;;
27265;SDS011;14766;51.380;13.762;2023-06-19T10:01:19;8.27;;;6.85;;
27265;SDS011;14766;51.380;13.762;2023-06-19T10:03:48;6.80;;;6.20;;
27265;SDS011;14766;51.380;13.762;2023-06-19T10:06:16;7.97;;;6.75;;
27265;SDS011;14766;51.380;13.762;2023-06-19T10:08:45;8.48;;;6.78;;
27265;SDS011;14766;51.380;13.762;2023-06-19T10:11:13;7.22;;;6.53;;
27265;SDS011;14766;51.380;13.762;2023-06-19T10:13:40;6.80;;;6.10;;
27265;SDS011;14766;51.380;13.762;2023-06-19T10:16:19;7.10;;;6.40;;
27265;SDS011;14766;51.380;13.762;2023-06-19T10:18:47;7.63;;;6.80;;
27265;SDS011;14766;51.380;13.762;2023-06-19T10:21:16;7.25;;;6.60;;
27265;SDS011;14766;51.380;13.762;2023-06-19T10:23:52;7.53;;;6.75;;
27265;SDS011;14766;51.380;13.762;2023-06-19T10:26:29;7.55;;;6.80;;
27265;SDS011;14766;51.380;13.762;2023-06-19T10:28:57;7.72;;;6.70;;
27265;SDS011;14766;51.380;13.762;2023-06-19T10:31:25;7.80;;;6.82;;
27265;SDS011;14766;51.380;13.762;2023-06-19T10:33:55;8.45;;;7.35;;
27265;SDS011;14766;51.380;13.762;2023-06-19T10:36:23;7.53;;;6.82;;
27265;SDS011;14766;51.380;13.762;2023-06-19T10:38:52;7.32;;;6.03;;
27265;SDS011;14766;51.380;13.762;2023-06-19T10:41:21;7.47;;;6.78;;
27265;SDS011;14766;51.380;13.762;2023-06-19T10:44:06;6.82;;;6.20;;
27265;SDS011;14766;51.380;13.762;2023-06-19T10:46:39;7.63;;;6.93;;
27265;SDS011;14766;51.380;13.762;2023-06-19T10:49:09;6.68;;;6.07;;
27265;SDS011;14766;51.380;13.762;2023-06-19T10:51:38;7.22;;;6.53;;
27265;SDS011;14766;51.380;13.762;2023-06-19T10:54:06;6.50;;;5.85;;
27265;SDS011;14766;51.380;13.762;2023-06-19T10:56:34;7.00;;;6.30;;
27265;SDS011;14766;51.380;13.762;2023-06-19T10:59:06;6.95;;;6.35;;
27265;SDS011;14766;51.380;13.762;2023-06-19T11:01:39;7.60;;;6.80;;
27265;SDS011;14766;51.380;13.762;2023-06-19T11:04:11;7.63;;;6.82;;
27265;SDS011;14766;51.380;13.762;2023-06-19T11:06:40;7.43;;;6.72;;
27265;SDS011;14766;51.380;13.762;2023-06-19T11:09:09;7.65;;;6.85;;
27265;SDS011;14766;51.380;13.762;2023-06-19T11:11:43;8.90;;;7.15;;
27265;SDS011;14766;51.380;13.762;2023-06-19T11:14:12;6.97;;;6.28;;
27265;SDS011;14766;51.380;13.762;2023-06-19T11:16:47;7.20;;;6.50;;
27265;SDS011;14766;51.380;13.762;2023-06-19T11:19:16;7.33;;;6.63;;
27265;SDS011;14766;51.380;13.762;2023-06-19T11:21:49;7.38;;;6.55;;
27265;SDS011;14766;51.380;13.762;2023-06-19T11:24:17;6.95;;;6.35;;
27265;SDS011;14766;51.380;13.762;2023-06-19T11:26:46;7.75;;;6.95;;
27265;SDS011;14766;51.380;13.762;2023-06-19T11:29:23;7.10;;;6.38;;
27265;SDS011;14766;51.380;13.762;2023-06-19T11:32:12;7.40;;;5.85;;
27265;SDS011;14766;51.380;13.762;2023-06-19T11:34:40;6.45;;;5.85;;
27265;SDS011;14766;51.380;13.762;2023-06-19T11:37:11;6.82;;;6.22;;
27265;SDS011;14766;51.380;13.762;2023-06-19T11:39:41;5.30;;;4.80;;
27265;SDS011;14766;51.380;13.762;2023-06-19T11:42:13;6.15;;;5.55;;
27265;SDS011;14766;51.380;13.762;2023-06-19T11:47:30;6.20;;;5.45;;
27265;SDS011;14766;51.380;13.762;2023-06-19T11:49:58;6.20;;;5.60;;
27265;SDS011;14766;51.380;13.762;2023-06-19T11:52:26;6.05;;;5.38;;
27265;SDS011;14766;51.380;13.762;2023-06-19T11:54:55;6.57;;;5.97;;
27265;SDS011;14766;51.380;13.762;2023-06-19T11:57:23;6.20;;;5.60;;
27265;SDS011;14766;51.380;13.762;2023-06-19T11:59:51;6.70;;;6.10;;
27265;SDS011;14766;51.380;13.762;2023-06-19T12:02:18;6.55;;;5.95;;
27265;SDS011;14766;51.380;13.762;2023-06-19T12:04:46;6.90;;;6.30;;
27265;SDS011;14766;51.380;13.762;2023-06-19T12:07:13;6.90;;;6.30;;
27265;SDS011;14766;51.380;13.762;2023-06-19T12:09:43;7.57;;;6.78;;
27265;SDS011;14766;51.380;13.762;2023-06-19T12:12:11;6.53;;;5.93;;
27265;SDS011;14766;51.380;13.762;2023-06-19T12:14:38;6.75;;;6.15;;
27265;SDS011;14766;51.380;13.762;2023-06-19T12:17:06;7.32;;;6.07;;
27265;SDS011;14766;51.380;13.762;2023-06-19T12:19:33;6.82;;;6.03;;
27265;SDS011;14766;51.380;13.762;2023-06-19T12:22:00;6.97;;;6.28;;
27265;SDS011;14766;51.380;13.762;2023-06-19T12:24:27;6.45;;;5.85;;
27265;SDS011;14766;51.380;13.762;2023-06-19T12:26:55;6.30;;;5.70;;
27265;SDS011;14766;51.380;13.762;2023-06-19T12:29:21;6.07;;;5.47;;
27265;SDS011;14766;51.380;13.762;2023-06-19T12:31:49;7.22;;;6.53;;
27265;SDS011;14766;51.380;13.762;2023-06-19T12:34:17;6.53;;;5.88;;
27265;SDS011;14766;51.380;13.762;2023-06-19T12:36:56;6.55;;;5.88;;
27265;SDS011;14766;51.380;13.762;2023-06-19T12:39:24;6.45;;;5.85;;
27265;SDS011;14766;51.380;13.762;2023-06-19T12:41:54;7.53;;;6.22;;
27265;SDS011;14766;51.380;13.762;2023-06-19T12:44:22;6.30;;;5.80;;
27265;SDS011;14766;51.380;13.762;2023-06-19T12:46:51;6.35;;;5.85;;
27265;SDS011;14766;51.380;13.762;2023-06-19T12:49:19;6.68;;;6.07;;
27265;SDS011;14766;51.380;13.762;2023-06-19T12:51:48;6.68;;;6.07;;
27265;SDS011;14766;51.380;13.762;2023-06-19T12:54:18;6.43;;;5.82;;
27265;SDS011;14766;51.380;13.762;2023-06-19T12:56:46;6.38;;;5.53;;
27265;SDS011;14766;51.380;13.762;2023-06-19T12:59:15;6.32;;;5.72;;
27265;SDS011;14766;51.380;13.762;2023-06-19T13:01:43;6.03;;;5.43;;
27265;SDS011;14766;51.380;13.762;2023-06-19T13:04:12;5.55;;;5.05;;
27265;SDS011;14766;51.380;13.762;2023-06-19T13:06:40;6.18;;;5.63;;
27265;SDS011;14766;51.380;13.762;2023-06-19T13:09:07;6.07;;;5.47;;
27265;SDS011;14766;51.380;13.762;2023-06-19T13:11:35;6.18;;;5.57;;
27265;SDS011;14766;51.380;13.762;2023-06-19T13:14:02;5.78;;;5.18;;
27265;SDS011;14766;51.380;13.762;2023-06-19T13:16:30;5.68;;;5.18;;
27265;SDS011;14766;51.380;13.762;2023-06-19T13:19:11;5.72;;;5.22;;
27265;SDS011;14766;51.380;13.762;2023-06-19T13:21:41;5.93;;;5.38;;
27265;SDS011;14766;51.380;13.762;2023-06-19T13:24:09;6.30;;;5.70;;
27265;SDS011;14766;51.380;13.762;2023-06-19T13:26:36;5.90;;;5.30;;
27265;SDS011;14766;51.380;13.762;2023-06-19T13:29:04;5.45;;;4.95;;
27265;SDS011;14766;51.380;13.762;2023-06-19T13:31:31;5.70;;;5.10;;
27265;SDS011;14766;51.380;13.762;2023-06-19T13:33:58;5.82;;;5.25;;
27265;SDS011;14766;51.380;13.762;2023-06-19T13:36:26;5.15;;;4.68;;
27265;SDS011;14766;51.380;13.762;2023-06-19T13:38:54;5.50;;;5.00;;
27265;SDS011;14766;51.380;13.762;2023-06-19T13:41:22;6.47;;;5.88;;
27265;SDS011;14766;51.380;13.762;2023-06-19T13:43:50;6.53;;;5.78;;
27265;SDS011;14766;51.380;13.762;2023-06-19T13:46:21;7.40;;;6.70;;
27265;SDS011;14766;51.380;13.762;2023-06-19T13:48:49;6.65;;;6.03;;
27265;SDS011;14766;51.380;13.762;2023-06-19T13:51:18;6.00;;;5.50;;
27265;SDS011;14766;51.380;13.762;2023-06-19T13:53:47;7.07;;;6.32;;
27265;SDS011;14766;51.380;13.762;2023-06-19T13:56:15;7.32;;;6.10;;
27265;SDS011;14766;51.380;13.762;2023-06-19T13:58:43;6.95;;;6.05;;
27265;SDS011;14766;51.380;13.762;2023-06-19T14:01:11;6.85;;;6.22;;
27265;SDS011;14766;51.380;13.762;2023-06-19T14:03:38;6.93;;;6.22;;
27265;SDS011;14766;51.380;13.762;2023-06-19T14:06:09;6.38;;;5.78;;
27265;SDS011;14766;51.380;13.762;2023-06-19T14:08:37;7.38;;;6.68;;
27265;SDS011;14766;51.380;13.762;2023-06-19T14:11:06;6.65;;;5.97;;
27265;SDS011;14766;51.380;13.762;2023-06-19T14:13:34;6.38;;;5.78;;
27265;SDS011;14766;51.380;13.762;2023-06-19T14:16:01;6.57;;;5.97;;
27265;SDS011;14766;51.380;13.762;2023-06-19T14:18:29;6.60;;;6.00;;
27265;SDS011;14766;51.380;13.762;2023-06-19T14:20:56;8.07;;;5.60;;
27265;SDS011;14766;51.380;13.762;2023-06-19T14:23:24;5.88;;;5.28;;
27265;SDS011;14766;51.380;13.762;2023-06-19T14:25:52;6.30;;;5.70;;
27265;SDS011;14766;51.380;13.762;2023-06-19T14:28:20;6.18;;;5.57;;
27265;SDS011;14766;51.380;13.762;2023-06-19T14:30:48;6.00;;;5.50;;
27265;SDS011;14766;51.380;13.762;2023-06-19T14:33:16;6.43;;;5.70;;
27265;SDS011;14766;51.380;13.762;2023-06-19T14:35:45;6.13;;;5.53;;
27265;SDS011;14766;51.380;13.762;2023-06-19T14:38:14;6.13;;;5.40;;
27265;SDS011;14766;51.380;13.762;2023-06-19T14:40:43;5.70;;;5.20;;
27265;SDS011;14766;51.380;13.762;2023-06-19T14:43:11;5.45;;;4.95;;
27265;SDS011;14766;51.380;13.762;2023-06-19T14:45:38;5.82;;;5.32;;